createdAt,value
2022-08-26T00:01:46.121Z,11.47
2022-08-26T00:03:48.962Z,12.27
2022-08-26T00:05:53.112Z,11.53
2022-08-26T00:07:55.826Z,11.93
2022-08-26T00:09:58.955Z,12.20
2022-08-26T00:12:03.338Z,11.93
2022-08-26T00:14:06.124Z,11.20
2022-08-26T00:16:09.261Z,12.27
2022-08-26T00:18:16.856Z,11.67
2022-08-26T00:20:28.347Z,10.60
2022-08-26T00:22:32.383Z,11.43
2022-08-26T00:24:35.300Z,12.03
2022-08-26T00:26:39.242Z,13.03
2022-08-26T00:28:44.152Z,12.40
2022-08-26T00:30:48.066Z,12.70
2022-08-26T00:32:54.288Z,11.87
2022-08-26T00:34:57.012Z,12.30
2022-08-26T00:36:59.735Z,12.17
2022-08-26T00:39:03.864Z,12.37
2022-08-26T00:41:06.971Z,12.80
2022-08-26T00:43:10.003Z,12.13
2022-08-26T00:45:12.833Z,12.63
2022-08-26T00:47:21.024Z,13.80
2022-08-26T00:49:25.797Z,12.40
2022-08-26T00:51:29.997Z,13.23
2022-08-26T00:53:34.954Z,14.10
2022-08-26T00:55:40.372Z,12.47
2022-08-26T00:57:43.089Z,12.93
2022-08-26T00:59:48.929Z,12.70
2022-08-26T01:01:52.204Z,12.57
2022-08-26T01:03:55.451Z,12.07
2022-08-26T01:05:59.855Z,13.57
2022-08-26T01:08:03.593Z,12.37
2022-08-26T01:10:08.544Z,12.57
2022-08-26T01:12:12.973Z,11.80
2022-08-26T01:14:16.720Z,12.03
2022-08-26T01:16:21.958Z,11.30
2022-08-26T01:18:25.252Z,12.50
2022-08-26T01:20:35.128Z,11.90
2022-08-26T01:22:45.481Z,12.07
2022-08-26T01:24:48.393Z,12.67
2022-08-26T01:26:51.303Z,11.70
2022-08-26T01:28:55.427Z,11.60
2022-08-26T01:30:58.643Z,12.37
2022-08-26T01:33:02.311Z,12.47
2022-08-26T01:35:05.695Z,12.40
2022-08-26T01:37:13.643Z,12.10
2022-08-26T01:39:19.901Z,12.17
2022-08-26T01:41:27.511Z,12.40
2022-08-26T01:43:31.840Z,12.13
2022-08-26T01:45:35.239Z,12.80
2022-08-26T01:47:38.015Z,12.20
2022-08-26T01:49:40.872Z,12.50
2022-08-26T01:51:44.471Z,11.50
2022-08-26T01:53:47.441Z,11.73
2022-08-26T01:55:53.968Z,11.53
2022-08-26T01:57:57.164Z,12.93
2022-08-26T02:00:01.048Z,13.00
2022-08-26T02:02:03.893Z,12.10
2022-08-26T02:04:09.263Z,12.10
2022-08-26T02:06:13.148Z,11.67
2022-08-26T02:08:17.443Z,13.00
2022-08-26T02:10:27.331Z,12.83
2022-08-26T02:12:31.437Z,12.83
2022-08-26T02:14:43.641Z,12.63
2022-08-26T02:16:48.251Z,13.03
2022-08-26T02:18:52.755Z,11.83
2022-08-26T02:20:56.031Z,13.07
2022-08-26T02:22:58.835Z,11.77
2022-08-26T02:25:02.960Z,12.47
2022-08-26T02:27:06.383Z,12.20
2022-08-26T02:29:12.312Z,12.90
2022-08-26T02:31:17.586Z,12.30
2022-08-26T02:33:20.364Z,11.90
2022-08-26T02:35:24.130Z,12.20
2022-08-26T02:37:29.164Z,12.47
2022-08-26T02:39:32.410Z,12.60
2022-08-26T02:41:35.455Z,13.27
2022-08-26T02:43:47.911Z,12.60
2022-08-26T02:45:51.999Z,13.30
2022-08-26T02:47:55.730Z,12.60
2022-08-26T02:49:59.547Z,11.53
2022-08-26T02:52:02.328Z,12.70
2022-08-26T02:54:06.398Z,12.87
2022-08-26T02:56:09.524Z,13.30
2022-08-26T02:58:12.262Z,13.40
2022-08-26T03:00:15.875Z,14.57
2022-08-26T03:02:21.306Z,13.40
2022-08-26T03:04:25.832Z,12.23
2022-08-26T03:06:28.780Z,13.37
2022-08-26T03:08:31.486Z,12.27
2022-08-26T03:10:34.272Z,13.50
2022-08-26T03:12:37.480Z,13.00
2022-08-26T03:14:40.181Z,14.20
2022-08-26T03:16:42.956Z,12.80
2022-08-26T03:18:52.233Z,13.63
2022-08-26T03:20:55.365Z,13.07
2022-08-26T03:22:58.110Z,13.00
2022-08-26T03:25:01.754Z,13.20
2022-08-26T03:27:07.339Z,12.00
2022-08-26T03:29:27.833Z,13.97
2022-08-26T03:31:36.147Z,13.50
2022-08-26T03:33:39.243Z,12.90
2022-08-26T03:35:44.377Z,12.83
2022-08-26T03:37:47.323Z,12.40
2022-08-26T03:39:52.276Z,13.87
2022-08-26T03:41:55.309Z,12.33
2022-08-26T03:44:01.559Z,13.23
2022-08-26T03:46:05.847Z,13.80
2022-08-26T03:48:08.595Z,13.17
2022-08-26T03:50:14.039Z,12.30
2022-08-26T03:52:18.317Z,14.03
2022-08-26T03:54:21.020Z,12.93
2022-08-26T03:56:23.735Z,13.57
2022-08-26T03:58:26.531Z,15.00
2022-08-26T04:00:29.828Z,12.90
2022-08-26T04:02:32.552Z,14.17
2022-08-26T04:04:36.019Z,13.00
2022-08-26T04:06:39.553Z,14.90
2022-08-26T04:08:44.776Z,14.23
2022-08-26T04:10:47.496Z,12.33
2022-08-26T04:12:51.009Z,13.20
2022-08-26T04:14:53.840Z,13.30
2022-08-26T04:16:57.024Z,13.13
2022-08-26T04:19:00.028Z,13.50
2022-08-26T04:21:03.841Z,13.10
2022-08-26T04:23:11.416Z,13.60
2022-08-26T04:25:15.741Z,13.87
2022-08-26T04:27:18.774Z,13.00
2022-08-26T04:29:23.907Z,14.03
2022-08-26T04:31:26.692Z,14.07
2022-08-26T04:33:33.661Z,12.80
2022-08-26T04:35:37.055Z,13.50
2022-08-26T04:37:42.983Z,13.77
2022-08-26T04:39:45.868Z,13.90
2022-08-26T04:41:50.839Z,13.97
2022-08-26T04:43:53.607Z,13.80
2022-08-26T04:45:57.252Z,14.67
2022-08-26T04:48:00.005Z,14.50
2022-08-26T04:50:02.716Z,13.90
2022-08-26T04:52:05.520Z,12.97
2022-08-26T04:54:08.632Z,12.23
2022-08-26T04:56:11.348Z,13.50
2022-08-26T04:58:17.104Z,14.53
2022-08-26T05:00:20.111Z,13.10
2022-08-26T05:02:22.955Z,106.57
2022-08-26T05:04:25.748Z,20.10
2022-08-26T05:06:28.839Z,14.10
2022-08-26T05:08:38.256Z,15.00
2022-08-26T05:10:41.946Z,16.17
2022-08-26T05:12:46.272Z,14.80
2022-08-26T05:14:50.317Z,14.47
2022-08-26T05:16:55.647Z,15.57
2022-08-26T05:18:59.212Z,14.80
2022-08-26T05:21:03.257Z,14.37
2022-08-26T05:23:07.242Z,14.57
2022-08-26T05:25:10.885Z,15.53
2022-08-26T05:27:13.747Z,14.07
2022-08-26T05:29:16.783Z,15.13
2022-08-26T05:31:23.327Z,13.97
2022-08-26T05:33:26.095Z,14.73
2022-08-26T05:35:31.881Z,13.60
2022-08-26T05:37:34.625Z,14.73
2022-08-26T05:39:38.389Z,14.67
2022-08-26T05:41:44.695Z,17.20
2022-08-26T05:43:47.609Z,16.03
2022-08-26T05:45:51.642Z,15.13
2022-08-26T05:47:55.957Z,14.43
2022-08-26T05:49:58.673Z,14.40
2022-08-26T05:52:01.388Z,14.80
2022-08-26T05:54:04.427Z,14.57
2022-08-26T05:56:07.772Z,15.47
2022-08-26T05:58:10.983Z,14.23
2022-08-26T06:00:16.208Z,14.70
2022-08-26T06:02:19.606Z,16.67
2022-08-26T06:04:27.100Z,15.57
2022-08-26T06:06:32.626Z,15.87
2022-08-26T06:08:35.662Z,16.87
2022-08-26T06:10:44.380Z,15.70
2022-08-26T06:12:48.406Z,16.93
2022-08-26T06:14:51.185Z,16.70
2022-08-26T06:16:54.935Z,16.60
2022-08-26T06:18:57.689Z,16.20
2022-08-26T06:21:02.389Z,16.60
2022-08-26T06:23:31.368Z,15.60
2022-08-26T06:25:39.208Z,17.43
2022-08-26T06:27:41.928Z,15.73
2022-08-26T06:29:44.636Z,18.00
2022-08-26T06:31:47.676Z,17.37
2022-08-26T06:33:50.476Z,23.63
2022-08-26T06:35:53.643Z,18.27
2022-08-26T06:37:58.502Z,16.87
2022-08-26T06:40:01.257Z,18.43
2022-08-26T06:42:07.189Z,15.93
2022-08-26T06:44:09.899Z,17.27
2022-08-26T06:46:13.673Z,15.30
2022-08-26T06:48:17.359Z,16.30
2022-08-26T06:50:20.688Z,17.23
2022-08-26T06:52:24.374Z,16.57
2022-08-26T06:54:30.161Z,16.27
2022-08-26T06:56:34.571Z,15.73
2022-08-26T06:58:37.627Z,15.50
2022-08-26T07:00:40.339Z,15.80
2022-08-26T07:02:49.941Z,15.30
2022-08-26T07:04:52.813Z,16.10
2022-08-26T07:07:00.185Z,16.53
2022-08-26T07:09:04.998Z,15.80
2022-08-26T07:11:10.133Z,16.10
2022-08-26T07:13:13.241Z,16.27
2022-08-26T07:15:16.005Z,15.40
2022-08-26T07:17:19.301Z,16.57
2022-08-26T07:19:27.623Z,16.80
2022-08-26T07:21:34.008Z,16.13
2022-08-26T07:23:37.143Z,15.50
2022-08-26T07:25:40.141Z,16.10
2022-08-26T07:27:44.261Z,15.83
2022-08-26T07:29:47.132Z,17.53
2022-08-26T07:31:49.848Z,17.40
2022-08-26T07:33:52.739Z,15.13
2022-08-26T07:35:56.018Z,15.93
2022-08-26T07:37:58.762Z,16.30
2022-08-26T07:40:01.867Z,17.20
2022-08-26T07:42:07.783Z,16.23
2022-08-26T07:44:12.573Z,15.70
2022-08-26T07:46:18.533Z,16.07
2022-08-26T07:48:23.588Z,16.43
2022-08-26T07:50:49.001Z,13.80
2022-08-26T07:52:49.878Z,15.60
2022-08-26T07:54:52.585Z,14.20
2022-08-26T07:56:55.881Z,14.97
2022-08-26T07:58:58.815Z,14.83
2022-08-26T08:01:02.896Z,13.03
2022-08-26T08:03:07.836Z,14.40
2022-08-26T08:05:11.579Z,13.93
2022-08-26T08:07:14.798Z,13.57
2022-08-26T08:09:17.958Z,13.90
2022-08-26T08:11:22.224Z,14.27
2022-08-26T08:13:25.137Z,13.10
2022-08-26T08:15:29.820Z,13.53
2022-08-26T08:17:34.385Z,13.00
2022-08-26T08:19:39.207Z,13.33
2022-08-26T08:21:42.115Z,12.53
2022-08-26T08:23:45.487Z,13.90
2022-08-26T08:25:49.071Z,14.10
2022-08-26T08:27:51.785Z,12.67
2022-08-26T08:29:55.130Z,14.07
2022-08-26T08:31:59.866Z,13.27
2022-08-26T08:34:04.088Z,13.30
2022-08-26T08:36:07.665Z,12.67
2022-08-26T08:38:12.069Z,11.30
2022-08-26T08:40:18.277Z,12.10
2022-08-26T08:42:36.708Z,12.03
2022-08-26T08:44:42.141Z,12.20
2022-08-26T08:46:45.103Z,12.67
2022-08-26T08:48:48.556Z,12.47
2022-08-26T08:50:54.092Z,13.10
2022-08-26T08:53:05.789Z,12.97
2022-08-26T08:55:14.789Z,13.33
2022-08-26T08:57:24.438Z,13.67
2022-08-26T08:59:28.333Z,11.83
2022-08-26T09:01:43.668Z,11.47
2022-08-26T09:03:50.057Z,12.60
2022-08-26T09:05:55.371Z,11.93
2022-08-26T09:07:59.803Z,12.30
2022-08-26T09:10:07.011Z,12.60
2022-08-26T09:12:12.697Z,12.68
2022-08-26T09:14:15.395Z,12.37
2022-08-26T09:16:20.457Z,13.13
2022-08-26T09:18:30.836Z,11.73
2022-08-26T09:20:38.900Z,12.90
2022-08-26T09:22:44.298Z,11.80
2022-08-26T09:24:48.488Z,12.00
2022-08-26T09:26:52.683Z,12.70
2022-08-26T09:28:57.571Z,11.10
2022-08-26T09:31:04.785Z,11.77
2022-08-26T09:33:11.135Z,12.60
2022-08-26T09:35:26.042Z,11.60
2022-08-26T09:37:40.051Z,10.73
2022-08-26T09:39:44.161Z,12.00
2022-08-26T09:41:47.173Z,11.83
2022-08-26T09:44:14.405Z,12.97
2022-08-26T09:46:19.734Z,12.40
2022-08-26T09:48:28.279Z,11.63
2022-08-26T09:50:32.732Z,12.17
2022-08-26T09:52:35.482Z,11.27
2022-08-26T09:54:38.747Z,11.60
2022-08-26T09:56:42.889Z,10.57
2022-08-26T09:58:47.084Z,10.63
2022-08-26T10:00:55.364Z,10.50
2022-08-26T10:02:58.796Z,11.13
2022-08-26T10:05:08.937Z,10.67
2022-08-26T10:07:13.159Z,10.43
2022-08-26T10:09:18.761Z,10.57
2022-08-26T10:11:25.565Z,11.30
2022-08-26T10:13:33.535Z,10.13
2022-08-26T10:15:42.379Z,11.03
2022-08-26T10:17:54.405Z,10.10
2022-08-26T10:19:58.280Z,10.53
2022-08-26T10:22:04.126Z,9.30
2022-08-26T10:24:07.140Z,11.13
2022-08-26T10:26:16.574Z,9.83
2022-08-26T10:28:22.215Z,9.90
2022-08-26T10:30:30.476Z,10.03
2022-08-26T10:32:36.059Z,9.70
2022-08-26T10:34:44.000Z,9.03
2022-08-26T10:37:15.569Z,9.97
2022-08-26T10:39:16.817Z,9.93
2022-08-26T10:41:21.877Z,9.90
2022-08-26T10:43:26.432Z,10.07
2022-08-26T10:45:38.269Z,10.27
2022-08-26T10:47:44.273Z,10.80
2022-08-26T10:49:47.616Z,11.13
2022-08-26T10:51:55.564Z,12.40
2022-08-26T10:54:01.879Z,10.83
2022-08-26T10:56:18.581Z,11.50
2022-08-26T10:58:33.015Z,10.33
2022-08-26T11:00:58.137Z,11.27
2022-08-26T11:03:03.920Z,10.57
2022-08-26T11:05:07.802Z,11.20
2022-08-26T11:07:30.086Z,9.83
2022-08-26T11:09:45.391Z,9.80
2022-08-26T11:11:49.982Z,11.07
2022-08-26T11:14:00.095Z,10.33
2022-08-26T11:16:04.254Z,10.97
2022-08-26T11:18:08.927Z,9.70
2022-08-26T11:20:17.846Z,10.80
2022-08-26T11:22:25.989Z,9.70
2022-08-26T11:24:57.279Z,10.77
2022-08-26T11:27:00.089Z,10.00
2022-08-26T11:29:03.055Z,10.50
2022-08-26T11:31:10.010Z,10.57
2022-08-26T11:33:29.659Z,8.97
2022-08-26T11:35:49.545Z,9.20
2022-08-26T11:37:54.377Z,9.17
2022-08-26T11:39:57.550Z,8.97
2022-08-26T11:42:01.641Z,9.20
2022-08-26T11:44:09.133Z,10.87
2022-08-26T11:46:13.583Z,8.67
2022-08-26T11:48:16.863Z,8.07
2022-08-26T11:50:20.691Z,8.73
2022-08-26T11:52:25.350Z,9.10
2022-08-26T11:54:35.142Z,9.17
2022-08-26T11:56:38.533Z,10.23
2022-08-26T11:58:42.819Z,8.30
2022-08-26T12:00:51.419Z,7.10
2022-08-26T12:02:55.927Z,7.93
2022-08-26T12:04:58.684Z,8.50
2022-08-26T12:07:02.538Z,7.90
2022-08-26T12:09:08.913Z,7.50
2022-08-26T12:11:13.697Z,8.73
2022-08-26T12:13:21.886Z,8.50
2022-08-26T12:15:24.841Z,8.43
2022-08-26T12:17:28.332Z,8.50
2022-08-26T12:19:33.707Z,9.53
2022-08-26T12:21:36.429Z,8.40
2022-08-26T12:23:43.369Z,9.50
2022-08-26T12:25:46.525Z,30.40
2022-08-26T12:27:53.792Z,9.03
2022-08-26T12:30:08.352Z,8.90
2022-08-26T12:32:13.440Z,8.20
2022-08-26T12:34:17.678Z,8.30
2022-08-26T12:36:25.197Z,7.30
2022-08-26T12:38:28.185Z,8.30
2022-08-26T12:40:35.715Z,7.10
2022-08-26T12:42:42.243Z,6.67
2022-08-26T12:44:53.022Z,6.20
2022-08-26T12:47:03.263Z,7.27
2022-08-26T12:49:06.084Z,7.33
2022-08-26T12:51:09.146Z,6.93
2022-08-26T12:53:18.775Z,7.20
2022-08-26T12:55:22.731Z,8.10
2022-08-26T12:57:27.437Z,7.67
2022-08-26T12:59:30.164Z,6.87
2022-08-26T13:01:42.332Z,7.33
2022-08-26T13:03:45.413Z,6.10
2022-08-26T13:05:48.218Z,6.93
2022-08-26T13:08:25.587Z,8.10
2022-08-26T13:10:34.945Z,8.33
2022-08-26T13:12:38.140Z,8.57
2022-08-26T13:14:40.864Z,7.47
2022-08-26T13:16:43.773Z,9.70
2022-08-26T13:18:46.544Z,7.37
2022-08-26T13:20:49.252Z,8.80
2022-08-26T13:22:59.141Z,9.10
2022-08-26T13:25:03.489Z,7.37
2022-08-26T13:27:07.400Z,7.27
2022-08-26T13:29:10.679Z,8.53
2022-08-26T13:31:13.784Z,8.40
2022-08-26T13:33:18.263Z,8.27
2022-08-26T13:35:21.043Z,8.87
2022-08-26T13:37:24.519Z,8.63
2022-08-26T13:39:38.113Z,9.27
2022-08-26T13:41:43.242Z,8.87
2022-08-26T13:43:45.975Z,8.80
2022-08-26T13:45:49.386Z,9.50
2022-08-26T13:47:52.105Z,7.80
2022-08-26T13:49:54.807Z,7.57
2022-08-26T13:51:57.529Z,8.57
2022-08-26T13:54:00.345Z,8.90
2022-08-26T13:56:05.911Z,9.20
2022-08-26T13:58:10.334Z,8.63
2022-08-26T14:00:14.492Z,9.13
2022-08-26T14:02:17.201Z,9.53
2022-08-26T14:04:27.118Z,8.57
2022-08-26T14:06:30.268Z,9.60
2022-08-26T14:08:33.213Z,8.90
2022-08-26T14:10:36.003Z,9.30
2022-08-26T14:12:39.765Z,10.07
2022-08-26T14:14:43.827Z,9.50
2022-08-26T14:16:51.299Z,9.50
2022-08-26T14:19:02.153Z,9.67
2022-08-26T14:21:05.029Z,9.60
2022-08-26T14:23:14.307Z,10.10
2022-08-26T14:25:17.560Z,10.70
2022-08-26T14:27:20.309Z,10.47
2022-08-26T14:29:23.052Z,9.77
2022-08-26T14:31:28.997Z,9.77
2022-08-26T14:33:33.189Z,9.83
2022-08-26T14:35:35.901Z,11.13
2022-08-26T14:37:38.673Z,10.10
2022-08-26T14:39:41.408Z,9.57
2022-08-26T14:41:54.529Z,10.30
2022-08-26T14:44:00.214Z,9.90
2022-08-26T14:46:03.133Z,9.33
2022-08-26T14:48:07.575Z,10.00
2022-08-26T14:50:10.793Z,9.77
2022-08-26T14:52:15.880Z,9.03
2022-08-26T14:54:18.067Z,9.83
2022-08-26T14:56:20.812Z,10.33
2022-08-26T14:58:23.539Z,9.97
2022-08-26T15:00:26.461Z,9.77
2022-08-26T15:02:33.797Z,9.60
2022-08-26T15:04:38.209Z,8.77
2022-08-26T15:06:41.025Z,7.93
2022-08-26T15:08:43.739Z,8.43
2022-08-26T15:10:46.457Z,7.70
2022-08-26T15:12:49.576Z,9.30
2022-08-26T15:14:52.328Z,9.03
2022-08-26T15:16:56.716Z,8.45
2022-08-26T15:18:59.451Z,9.70
2022-08-26T15:21:05.379Z,10.60
2022-08-26T15:23:08.352Z,9.60
2022-08-26T15:25:11.630Z,9.80
2022-08-26T15:27:14.355Z,10.33
2022-08-26T15:29:17.120Z,9.40
2022-08-26T15:31:19.991Z,9.87
2022-08-26T15:33:22.963Z,9.87
2022-08-26T15:35:25.687Z,9.40
2022-08-26T15:37:29.749Z,9.40
2022-08-26T15:39:32.543Z,9.77
2022-08-26T15:41:35.268Z,9.10
2022-08-26T15:43:38.211Z,9.40
2022-08-26T15:45:40.923Z,9.03
2022-08-26T15:47:55.244Z,9.97
2022-08-26T15:50:04.644Z,9.87
2022-08-26T15:52:07.547Z,10.53
2022-08-26T15:54:11.609Z,10.60
2022-08-26T15:56:14.349Z,9.30
2022-08-26T15:58:17.091Z,9.67
2022-08-26T16:00:20.611Z,10.33
2022-08-26T16:02:23.377Z,11.03
2022-08-26T16:04:26.171Z,12.30
2022-08-26T16:06:30.625Z,11.70
2022-08-26T16:08:36.401Z,13.80
2022-08-26T16:10:47.803Z,12.80
2022-08-26T16:12:53.817Z,13.67
2022-08-26T16:14:56.559Z,12.40
2022-08-26T16:16:59.251Z,12.53
2022-08-26T16:19:06.811Z,13.03
2022-08-26T16:21:13.795Z,13.80
2022-08-26T16:23:16.820Z,13.33
2022-08-26T16:25:20.130Z,14.27
2022-08-26T16:27:24.181Z,14.30
2022-08-26T16:29:26.947Z,13.60
2022-08-26T16:31:29.745Z,13.63
2022-08-26T16:33:32.487Z,14.03
2022-08-26T16:35:35.265Z,14.20
2022-08-26T16:37:39.453Z,14.60
2022-08-26T16:39:44.901Z,15.77
2022-08-26T16:41:47.922Z,14.10
2022-08-26T16:43:52.196Z,14.50
2022-08-26T16:45:54.982Z,14.37
2022-08-26T16:47:57.849Z,15.07
2022-08-26T16:50:01.083Z,14.50
2022-08-26T16:52:04.323Z,13.33
2022-08-26T16:54:07.487Z,14.00
2022-08-26T16:56:13.349Z,13.50
2022-08-26T16:58:16.292Z,13.80
2022-08-26T17:00:21.661Z,14.17
2022-08-26T17:02:24.402Z,14.40
2022-08-26T17:04:28.152Z,14.70
2022-08-26T17:06:30.937Z,15.23
2022-08-26T17:08:34.063Z,15.20
2022-08-26T17:10:36.826Z,15.80
2022-08-26T17:12:39.740Z,15.93
2022-08-26T17:14:42.473Z,16.80
2022-08-26T17:16:51.146Z,18.30
2022-08-26T17:18:53.863Z,18.00
2022-08-26T17:20:56.852Z,17.20
2022-08-26T17:22:59.563Z,17.60
2022-08-26T17:25:03.056Z,18.10
2022-08-26T17:27:06.115Z,18.57
2022-08-26T17:29:08.831Z,20.47
2022-08-26T17:31:12.339Z,21.93
2022-08-26T17:33:18.639Z,20.67
2022-08-26T17:35:24.722Z,21.90
2022-08-26T17:37:28.165Z,22.03
2022-08-26T17:39:30.871Z,21.63
2022-08-26T17:41:33.585Z,25.03
2022-08-26T17:43:36.418Z,23.60
2022-08-26T17:45:40.253Z,24.50
2022-08-26T17:47:43.401Z,25.37
2022-08-26T17:49:47.468Z,24.87
2022-08-26T17:51:50.178Z,26.07
2022-08-26T17:53:52.981Z,26.27
2022-08-26T17:55:55.708Z,24.97
2022-08-26T17:57:59.265Z,26.40
2022-08-26T18:00:02.704Z,25.50
2022-08-26T18:02:06.189Z,24.80
2022-08-26T18:04:09.993Z,25.03
2022-08-26T18:06:14.324Z,23.67
2022-08-26T18:08:17.031Z,22.53
2022-08-26T18:10:20.600Z,26.27
2022-08-26T18:12:23.443Z,24.60
2022-08-26T18:14:30.603Z,25.50
2022-08-26T18:16:38.129Z,27.83
2022-08-26T18:18:40.855Z,27.03
2022-08-26T18:20:44.233Z,27.27
2022-08-26T18:22:48.748Z,27.17
2022-08-26T18:24:57.379Z,27.93
2022-08-26T18:27:02.089Z,28.67
2022-08-26T18:29:05.125Z,29.03
2022-08-26T18:31:08.959Z,29.50
2022-08-26T18:33:12.049Z,26.20
2022-08-26T18:35:14.928Z,28.57
2022-08-26T18:37:19.663Z,30.23
2022-08-26T18:39:23.971Z,28.40
2022-08-26T18:41:28.647Z,28.90
2022-08-26T18:43:31.361Z,30.20
2022-08-26T18:45:34.542Z,31.20
2022-08-26T18:47:37.310Z,29.33
2022-08-26T18:49:40.051Z,28.20
2022-08-26T18:51:43.543Z,31.23
2022-08-26T18:53:46.336Z,29.50
2022-08-26T18:55:50.401Z,28.83
2022-08-26T18:57:53.113Z,29.57
2022-08-26T18:59:55.904Z,28.47
2022-08-26T19:01:58.740Z,28.80
2022-08-26T19:04:02.763Z,29.50
2022-08-26T19:06:05.823Z,27.47
2022-08-26T19:08:08.732Z,27.70
2022-08-26T19:10:12.542Z,26.07
2022-08-26T19:12:17.016Z,26.17
2022-08-26T19:14:19.740Z,25.60
2022-08-26T19:16:23.354Z,26.40
2022-08-26T19:18:26.088Z,24.53
2022-08-26T19:20:29.003Z,23.87
2022-08-26T19:22:31.725Z,23.33
2022-08-26T19:24:34.821Z,23.40
2022-08-26T19:26:38.878Z,22.13
2022-08-26T19:28:43.069Z,23.40
2022-08-26T19:30:50.112Z,23.10
2022-08-26T19:32:55.277Z,22.67
2022-08-26T19:34:58.076Z,20.27
2022-08-26T19:37:00.801Z,20.03
2022-08-26T19:39:05.569Z,19.00
2022-08-26T19:41:12.393Z,17.80
2022-08-26T19:43:15.091Z,16.90
2022-08-26T19:45:24.935Z,16.27
2022-08-26T19:47:28.308Z,15.83
2022-08-26T19:49:31.034Z,15.00
2022-08-26T19:51:34.608Z,15.43
2022-08-26T19:53:37.401Z,16.00
2022-08-26T19:55:44.163Z,15.33
2022-08-26T19:57:46.881Z,12.20
2022-08-26T19:59:49.706Z,13.23
2022-08-26T20:02:00.745Z,12.70
2022-08-26T20:04:04.974Z,11.43
2022-08-26T20:06:08.426Z,11.33
2022-08-26T20:08:11.709Z,10.47
2022-08-26T20:10:25.736Z,11.07
2022-08-26T20:12:29.204Z,10.13
2022-08-26T20:14:31.963Z,10.67
2022-08-26T20:16:34.719Z,9.70
2022-08-26T20:18:56.694Z,9.97
2022-08-26T20:21:16.896Z,9.87
2022-08-26T20:23:21.009Z,8.77
2022-08-26T20:25:23.898Z,8.50
2022-08-26T20:27:37.702Z,8.30
2022-08-26T20:29:41.488Z,8.80
2022-08-26T20:31:44.763Z,7.50
2022-08-26T20:33:50.518Z,7.97
2022-08-26T20:35:53.276Z,7.37
2022-08-26T20:37:55.991Z,7.17
2022-08-26T20:39:59.067Z,6.00
2022-08-26T20:42:02.632Z,6.37
2022-08-26T20:44:05.419Z,5.90
2022-08-26T20:46:17.219Z,5.60
2022-08-26T20:48:21.573Z,5.45
2022-08-26T20:50:25.654Z,5.03
2022-08-26T20:52:28.354Z,5.53
2022-08-26T20:54:31.143Z,5.50
2022-08-26T20:56:34.014Z,5.67
2022-08-26T20:58:36.917Z,5.50
2022-08-26T21:00:39.738Z,5.03
2022-08-26T21:02:42.509Z,5.73
2022-08-26T21:04:45.294Z,5.10
2022-08-26T21:06:52.862Z,5.53
2022-08-26T21:08:56.966Z,5.17
2022-08-26T21:11:00.533Z,5.97
2022-08-26T21:13:03.242Z,5.37
2022-08-26T21:15:07.333Z,5.03
2022-08-26T21:17:10.052Z,5.37
2022-08-26T21:19:14.393Z,4.93
2022-08-26T21:21:17.372Z,4.60
2022-08-26T21:23:23.123Z,4.90
2022-08-26T21:25:27.416Z,4.67
2022-08-26T21:27:30.139Z,5.00
2022-08-26T21:29:32.925Z,4.90
2022-08-26T21:31:35.835Z,5.70
2022-08-26T21:33:38.736Z,4.20
2022-08-26T21:35:41.465Z,5.00
2022-08-26T21:37:44.184Z,5.23
2022-08-26T21:39:48.249Z,5.20
2022-08-26T21:41:51.079Z,5.13
2022-08-26T21:43:54.560Z,5.57
2022-08-26T21:45:57.646Z,6.13
2022-08-26T21:48:00.669Z,5.00
2022-08-26T21:50:03.472Z,5.73
2022-08-26T21:52:06.575Z,5.80
2022-08-26T21:54:11.241Z,4.97
2022-08-26T21:56:16.843Z,5.10
2022-08-26T21:58:19.556Z,4.57
2022-08-26T22:00:22.451Z,5.20
2022-08-26T22:02:25.478Z,5.87
2022-08-26T22:04:28.580Z,5.50
2022-08-26T22:06:31.924Z,5.37
2022-08-26T22:08:34.725Z,5.00
2022-08-26T22:10:39.412Z,5.47
2022-08-26T22:12:43.452Z,5.43
2022-08-26T22:14:46.934Z,5.73
2022-08-26T22:16:50.594Z,5.73
2022-08-26T22:18:54.676Z,4.90
2022-08-26T22:20:58.027Z,4.63
2022-08-26T22:23:01.084Z,5.20
2022-08-26T22:25:03.855Z,5.73
2022-08-26T22:27:06.596Z,5.23
2022-08-26T22:29:10.623Z,5.50
2022-08-26T22:31:14.038Z,5.40
2022-08-26T22:33:17.138Z,5.53
2022-08-26T22:35:28.979Z,5.03
2022-08-26T22:37:32.405Z,5.90
2022-08-26T22:39:35.133Z,5.50
2022-08-26T22:41:37.855Z,5.07
2022-08-26T22:43:40.620Z,6.03
2022-08-26T22:45:46.631Z,5.97
2022-08-26T22:47:49.378Z,5.80
2022-08-26T22:49:52.094Z,5.27
2022-08-26T22:51:54.869Z,5.53
2022-08-26T22:53:57.571Z,6.43
2022-08-26T22:56:00.376Z,6.30
2022-08-26T22:58:03.454Z,5.80
2022-08-26T23:00:07.083Z,6.03
2022-08-26T23:02:15.309Z,5.70
2022-08-26T23:04:18.601Z,6.07
2022-08-26T23:06:21.364Z,6.90
2022-08-26T23:08:24.823Z,5.50
2022-08-26T23:10:27.580Z,6.40
2022-08-26T23:12:31.335Z,6.17
2022-08-26T23:14:34.036Z,5.93
2022-08-26T23:16:39.172Z,5.33
2022-08-26T23:18:43.653Z,6.07
2022-08-26T23:20:46.905Z,5.10
2022-08-26T23:22:49.728Z,5.47
2022-08-26T23:24:52.617Z,5.60
2022-08-26T23:26:57.510Z,5.80
2022-08-26T23:29:00.287Z,6.03
2022-08-26T23:31:03.011Z,6.77
2022-08-26T23:33:05.868Z,5.53
2022-08-26T23:35:10.278Z,5.83
2022-08-26T23:37:13.009Z,5.03
2022-08-26T23:39:15.728Z,5.53
2022-08-26T23:41:18.451Z,5.93
2022-08-26T23:43:21.157Z,5.10
2022-08-26T23:45:24.151Z,5.40
2022-08-26T23:47:27.388Z,5.70
2022-08-26T23:49:30.310Z,5.83
2022-08-26T23:51:52.177Z,5.43
2022-08-26T23:53:54.870Z,6.33
2022-08-26T23:55:57.600Z,5.87
2022-08-26T23:58:00.307Z,6.10
